Time;durP1;ratioP1;P1;durP2;ratioP2;P2;SDS_P1;SDS_P2;PMS_P1;PMS_P2;Temp;Humidity;BMP_temperature;BMP_pressure;BME280_temperature;BME280_humidity;BME280_pressure;Samples;Min_cycle;Max_cycle;Signal;HPM_P1;HPM_P2
2021/09/03 00:00:34;;;;;;;2.97;1.65;;;;;;;14.08;70.41;95672.13;5096348;28;20406;-80
2021/09/03 00:03:02;;;;;;;2.67;1.63;;;;;;;14.01;70.92;95674.09;5100228;28;20530;-80
2021/09/03 00:05:29;;;;;;;1.48;1.38;;;;;;;13.96;71.86;95674.75;5096070;28;20040;-80
2021/09/03 00:07:56;;;;;;;6.38;1.95;;;;;;;13.90;71.64;95665.22;5097559;28;20073;-80
2021/09/03 00:10:23;;;;;;;2.47;1.50;;;;;;;13.76;71.04;95674.34;5095121;28;20042;-80
2021/09/03 00:12:50;;;;;;;16.80;3.38;;;;;;;13.75;71.32;95668.31;5098084;28;20040;-80
2021/09/03 00:15:17;;;;;;;3.25;1.63;;;;;;;13.58;71.57;95667.44;5099475;28;20089;-79
2021/09/03 00:17:44;;;;;;;2.53;1.48;;;;;;;13.42;72.35;95663.69;5103005;28;20539;-79
2021/09/03 00:20:12;;;;;;;4.07;1.48;;;;;;;13.24;73.60;95661.16;5101226;28;20528;-79
2021/09/03 00:22:40;;;;;;;2.75;1.70;;;;;;;13.23;73.94;95662.16;5098106;28;20048;-80
2021/09/03 00:25:08;;;;;;;3.67;1.48;;;;;;;13.10;74.71;95656.13;5106274;28;20028;-79
2021/09/03 00:27:35;;;;;;;1.80;1.10;;;;;;;12.99;76.54;95664.75;5106467;28;20044;-79
2021/09/03 00:30:04;;;;;;;3.17;1.60;;;;;;;12.85;77.24;95660.75;5103738;28;20048;-79
2021/09/03 00:32:30;;;;;;;4.40;1.88;;;;;;;12.51;79.63;95665.66;5102050;28;20105;-78
2021/09/03 00:34:57;;;;;;;2.45;1.50;;;;;;;12.41;79.82;95666.97;5098760;28;20039;-80
2021/09/03 00:37:24;;;;;;;3.20;1.85;;;;;;;12.53;78.88;95655.78;5099771;28;20048;-79
2021/09/03 00:39:51;;;;;;;2.92;1.73;;;;;;;12.58;77.83;95653.28;5100416;28;20501;-79
2021/09/03 00:42:17;;;;;;;2.25;1.60;;;;;;;12.63;77.43;95656.81;5099841;28;20048;-79
2021/09/03 00:44:44;;;;;;;2.53;1.48;;;;;;;12.71;77.56;95658.34;5097427;28;20052;-79
2021/09/03 00:47:11;;;;;;;3.08;1.75;;;;;;;12.72;77.50;95657.31;5099556;28;20043;-80
2021/09/03 00:49:38;;;;;;;3.65;1.67;;;;;;;12.60;77.09;95646.84;5102146;28;20053;-79
2021/09/03 00:52:08;;;;;;;2.88;1.50;;;;;;;12.69;76.88;95655.13;5103551;28;20062;-78
2021/09/03 00:54:36;;;;;;;1.65;1.00;;;;;;;12.67;77.22;95659.78;5100004;28;20047;-79
2021/09/03 00:57:04;;;;;;;2.42;1.45;;;;;;;12.51;78.53;95650.75;5103767;28;20035;-79
2021/09/03 00:59:31;;;;;;;2.90;1.83;;;;;;;12.45;79.39;95648.25;5096554;28;20040;-78
2021/09/03 01:01:58;;;;;;;2.45;1.38;;;;;;;12.43;79.55;95641.44;5100079;28;20035;-78
2021/09/03 01:04:25;;;;;;;2.50;1.63;;;;;;;12.54;79.69;95652.16;5099173;28;20047;-79
2021/09/03 01:06:52;;;;;;;2.30;1.58;;;;;;;12.57;79.14;95649.09;5100015;28;20044;-79
2021/09/03 01:09:19;;;;;;;1.98;1.60;;;;;;;12.52;78.50;95644.53;5099389;28;20051;-79
2021/09/03 01:11:46;;;;;;;2.72;1.50;;;;;;;12.50;78.29;95635.34;5102724;27;20043;-78
2021/09/03 01:14:13;;;;;;;2.47;1.30;;;;;;;12.54;78.97;95646.94;5097186;28;20040;-79
2021/09/03 01:16:40;;;;;;;3.97;1.48;;;;;;;12.53;79.02;95647.94;5097716;28;20109;-79
2021/09/03 01:19:06;;;;;;;4.47;1.48;;;;;;;12.28;80.83;95658.53;5095868;28;20105;-78
2021/09/03 01:21:33;;;;;;;2.92;2.15;;;;;;;12.30;80.27;95657.28;5099620;28;20105;-79
2021/09/03 01:24:01;;;;;;;2.35;1.10;;;;;;;12.28;80.48;95653.28;5098037;28;20040;-80
2021/09/03 01:26:28;;;;;;;1.63;1.00;;;;;;;12.24;80.12;95650.31;5097492;28;20044;-78
2021/09/03 01:28:54;;;;;;;2.97;2.03;;;;;;;12.20;79.69;95646.56;5103349;28;20051;-79
2021/09/03 01:31:21;;;;;;;5.20;2.30;;;;;;;12.09;80.95;95642.09;5102126;28;20062;-79
2021/09/03 01:33:49;;;;;;;2.42;1.48;;;;;;;11.63;85.26;95652.81;5097434;28;20113;-79
2021/09/03 01:36:15;;;;;;;4.05;2.00;;;;;;;11.54;85.18;95654.13;5098327;28;20501;-79
2021/09/03 01:38:43;;;;;;;3.03;1.73;;;;;;;11.53;84.59;95652.53;5099360;28;20040;-78
2021/09/03 01:41:10;;;;;;;3.50;1.95;;;;;;;11.57;84.02;95648.47;5095720;28;20417;-79
2021/09/03 01:43:37;;;;;;;3.85;1.88;;;;;;;11.52;83.27;95635.25;5097294;28;20047;-79
2021/09/03 01:46:06;;;;;;;3.42;1.63;;;;;;;11.62;83.44;95646.00;5099970;28;20525;-79
2021/09/03 01:48:33;;;;;;;4.50;2.13;;;;;;;11.58;82.90;95628.41;5097961;28;20126;-79
2021/09/03 01:51:00;;;;;;;3.42;2.20;;;;;;;11.58;82.15;95628.41;5101076;28;20071;-79
2021/09/03 01:53:27;;;;;;;3.95;1.70;;;;;;;11.58;82.35;95623.97;5095098;28;20474;-79
2021/09/03 01:55:54;;;;;;;2.63;1.75;;;;;;;11.53;83.06;95616.00;5098392;28;20501;-80
2021/09/03 01:58:21;;;;;;;3.17;1.60;;;;;;;11.43;83.78;95610.47;5102560;28;20032;-79
2021/09/03 02:00:48;;;;;;;3.65;1.85;;;;;;;11.31;83.78;95612.19;5098619;28;20067;-79
2021/09/03 02:03:15;;;;;;;3.42;1.90;;;;;;;11.18;84.64;95613.94;5098204;28;20052;-79
2021/09/03 02:05:42;;;;;;;3.17;1.67;;;;;;;11.14;84.64;95619.78;5092599;28;20055;-79
2021/09/03 02:08:09;;;;;;;3.05;1.80;;;;;;;11.11;84.37;95613.22;5102923;28;20047;-78
2021/09/03 02:10:36;;;;;;;6.05;2.45;;;;;;;11.11;85.25;95608.00;5100194;28;20040;-79
2021/09/03 02:13:03;;;;;;;3.60;1.95;;;;;;;10.63;89.87;95596.34;5095812;28;20108;-79
2021/09/03 02:15:29;;;;;;;3.20;2.22;;;;;;;10.61;89.44;95605.41;5092942;28;20048;-78
2021/09/03 02:17:56;;;;;;;2.00;1.60;;;;;;;10.63;88.78;95590.34;5099388;28;20040;-78
2021/09/03 02:20:23;;;;;;;2.58;1.70;;;;;;;10.54;88.11;95583.81;5096789;28;20537;-78
2021/09/03 02:22:50;;;;;;;3.22;1.90;;;;;;;10.75;88.24;95608.69;5096968;28;20048;-76
2021/09/03 02:25:17;;;;;;;4.28;1.88;;;;;;;10.39;91.17;95597.13;5100346;28;20066;-79
2021/09/03 02:27:43;;;;;;;3.10;2.15;;;;;;;10.50;90.77;95596.47;5098815;28;20097;-79
2021/09/03 02:30:11;;;;;;;3.10;1.75;;;;;;;10.57;90.88;95612.03;5098311;28;20035;-78
2021/09/03 02:32:38;;;;;;;3.22;2.05;;;;;;;10.47;91.27;95597.66;5098568;28;20043;-78
2021/09/03 02:35:06;;;;;;;4.40;1.70;;;;;;;10.33;92.74;95596.16;5094835;27;20090;-78
2021/09/03 02:37:33;;;;;;;3.35;2.00;;;;;;;10.25;92.89;95596.38;5093033;28;20042;-78
2021/09/03 02:40:00;;;;;;;5.25;2.30;;;;;;;10.25;93.01;95599.00;5100450;28;20067;-78
2021/09/03 02:42:27;;;;;;;3.28;1.77;;;;;;;10.28;92.37;95599.38;5099147;28;20046;-79
2021/09/03 02:44:54;;;;;;;2.72;1.80;;;;;;;10.32;91.76;95594.56;5098884;28;20043;-79
2021/09/03 02:47:21;;;;;;;4.57;2.38;;;;;;;10.34;90.53;95582.13;5099773;28;20040;-79
2021/09/03 02:49:47;;;;;;;2.10;1.65;;;;;;;10.35;89.91;95583.72;5101001;28;20105;-79
2021/09/03 02:52:14;;;;;;;4.03;2.05;;;;;;;10.24;91.18;95586.97;5097291;28;20046;-79
2021/09/03 02:54:41;;;;;;;3.28;2.15;;;;;;;10.24;90.70;95592.19;5097270;28;20463;-79
2021/09/03 02:57:08;;;;;;;3.15;1.88;;;;;;;10.17;90.02;95571.38;5101634;28;20043;-80
2021/09/03 02:59:35;;;;;;;2.75;1.65;;;;;;;10.23;89.14;95585.41;5095874;28;20104;-80
2021/09/03 03:02:02;;;;;;;2.47;1.65;;;;;;;10.20;88.82;95570.19;5096722;28;20043;-80
2021/09/03 03:04:30;;;;;;;5.78;1.85;;;;;;;10.20;90.03;95578.78;5101597;28;20046;-79
2021/09/03 03:06:57;;;;;;;2.55;1.60;;;;;;;10.22;90.43;95594.19;5101369;28;20505;-78
2021/09/03 03:09:23;;;;;;;3.22;1.63;;;;;;;10.20;89.80;95585.81;5099517;28;20043;-79
2021/09/03 03:11:50;;;;;;;4.18;1.92;;;;;;;10.18;90.13;95577.41;5099975;28;20059;-78
2021/09/03 03:14:27;;;;;;;3.45;2.05;;;;;;;10.17;90.48;95594.03;5101123;28;20066;-79
2021/09/03 03:16:56;;;;;;;3.03;1.67;;;;;;;10.20;90.29;95591.00;5098977;28;20097;-80
2021/09/03 03:19:24;;;;;;;4.55;2.53;;;;;;;10.18;89.72;95598.25;5103307;28;20066;-80
2021/09/03 03:21:51;;;;;;;3.60;2.45;;;;;;;10.08;89.35;95594.28;5105395;28;20039;-80
2021/09/03 03:24:18;;;;;;;3.10;1.75;;;;;;;10.07;89.06;95597.88;5104419;28;20455;-80
2021/09/03 03:26:46;;;;;;;2.70;1.63;;;;;;;10.07;88.68;95603.09;5105472;28;20063;-79
2021/09/03 03:29:13;;;;;;;2.47;1.65;;;;;;;10.03;89.51;95591.50;5109979;28;20047;-79
2021/09/03 03:31:40;;;;;;;1.92;1.77;;;;;;;10.04;89.61;95603.50;5108791;28;20402;-77
2021/09/03 03:34:09;;;;;;;2.97;1.80;;;;;;;9.93;89.20;95585.94;5096988;28;20047;-80
2021/09/03 03:36:36;;;;;;;2.47;1.23;;;;;;;10.01;89.13;95614.34;5094488;28;20550;-79
2021/09/03 03:39:04;;;;;;;3.70;1.67;;;;;;;9.98;89.16;95606.94;5095556;28;20044;-79
2021/09/03 03:41:31;;;;;;;3.97;2.50;;;;;;;9.99;88.73;95621.53;5094366;28;20036;-80
2021/09/03 03:43:58;;;;;;;6.88;4.35;;;;;;;9.98;88.66;95613.97;5097886;28;20501;-80
2021/09/03 03:46:24;;;;;;;3.78;2.22;;;;;;;9.86;89.09;95606.00;5101055;28;20044;-79
2021/09/03 03:48:51;;;;;;;3.97;1.98;;;;;;;9.87;88.77;95607.59;5104052;28;20043;-80
2021/09/03 03:51:20;;;;;;;3.22;1.80;;;;;;;9.80;88.62;95617.25;5103116;28;20055;-79
2021/09/03 03:53:47;;;;;;;4.28;1.85;;;;;;;9.79;88.99;95620.84;5103333;28;20044;-80
2021/09/03 03:56:14;;;;;;;3.83;2.47;;;;;;;9.80;89.29;95627.66;5109951;28;20410;-80
2021/09/03 03:58:40;;;;;;;4.63;2.47;;;;;;;9.79;89.40;95624.22;5105150;28;20040;-79
2021/09/03 04:01:07;;;;;;;3.25;1.65;;;;;;;9.72;89.58;95611.25;5097843;28;20543;-78
2021/09/03 04:03:34;;;;;;;3.10;2.00;;;;;;;9.75;89.75;95620.44;5100787;28;20040;-79
2021/09/03 04:06:01;;;;;;;3.90;1.75;;;;;;;9.75;90.34;95629.03;5099027;28;20035;-79
2021/09/03 04:08:28;;;;;;;2.65;1.45;;;;;;;9.69;90.54;95624.66;5095681;28;20043;-79
2021/09/03 04:10:55;;;;;;;3.20;1.98;;;;;;;9.67;89.98;95624.06;5099426;28;20508;-79
2021/09/03 04:13:22;;;;;;;3.17;1.95;;;;;;;9.70;89.58;95628.84;5100105;28;20040;-79
2021/09/03 04:15:48;;;;;;;2.85;1.75;;;;;;;9.73;89.95;95644.06;5098767;28;20036;-79
2021/09/03 04:18:17;;;;;;;3.08;2.08;;;;;;;9.70;90.29;95654.88;5104884;28;20059;-79
2021/09/03 04:20:43;;;;;;;5.28;2.42;;;;;;;9.73;91.10;95651.84;5099181;28;21773;-79
2021/09/03 04:23:10;;;;;;;4.05;3.00;;;;;;;9.72;91.35;95642.47;5106266;28;20050;-79
2021/09/03 04:25:37;;;;;;;4.50;2.95;;;;;;;9.69;90.97;95652.50;5101593;28;20044;-79
2021/09/03 04:28:04;;;;;;;3.80;1.70;;;;;;;9.61;92.42;95640.50;5096520;28;20040;-78
2021/09/03 04:30:31;;;;;;;3.83;2.17;;;;;;;9.71;92.40;95656.47;5097116;28;20044;-79
2021/09/03 04:32:58;;;;;;;4.25;2.25;;;;;;;9.58;95.03;95648.72;5096268;28;20032;-79
2021/09/03 04:35:26;;;;;;;3.13;2.03;;;;;;;9.65;94.67;95651.28;5101934;28;20050;-79
2021/09/03 04:37:53;;;;;;;4.13;2.17;;;;;;;9.64;94.60;95650.50;5097110;28;20066;-79
2021/09/03 04:40:23;;;;;;;2.90;2.17;;;;;;;9.67;94.58;95644.88;5101818;28;20058;-78
2021/09/03 04:42:51;;;;;;;2.88;2.00;;;;;;;9.57;96.74;95649.72;5103502;28;20405;-79
2021/09/03 04:45:18;;;;;;;10.77;4.63;;;;;;;9.53;96.99;95643.31;5093180;28;20075;-77
2021/09/03 04:47:45;;;;;;;2.83;2.00;;;;;;;9.66;96.53;95640.69;5077176;28;20485;-78
2021/09/03 04:50:13;;;;;;;3.72;1.67;;;;;;;9.61;97.58;95650.88;5093297;28;20036;-79
2021/09/03 04:52:40;;;;;;;2.67;1.75;;;;;;;9.50;98.10;95648.94;5103518;28;20051;-80
2021/09/03 04:55:07;;;;;;;3.28;1.98;;;;;;;9.56;98.55;95645.50;5105131;28;20066;-79
2021/09/03 04:57:42;;;;;;;3.10;2.00;;;;;;;9.68;97.87;95641.25;5110074;28;20050;-80
2021/09/03 05:00:09;;;;;;;;;;;;;;;9.85;97.46;95648.63;5102333;28;20119;-79
2021/09/03 05:02:36;;;;;;;3.92;1.90;;;;;;;9.88;96.77;95641.19;5109290;28;19927;-79
2021/09/03 05:05:05;;;;;;;6.25;2.60;;;;;;;10.07;97.66;95642.13;5101312;28;20036;-79
2021/09/03 05:07:33;;;;;;;3.80;1.80;;;;;;;10.23;97.18;95634.84;5097088;28;20040;-79
2021/09/03 05:10:00;;;;;;;2.80;2.05;;;;;;;10.33;96.13;95643.03;5107920;28;20036;-79
2021/09/03 05:12:27;;;;;;;4.10;2.53;;;;;;;10.32;95.97;95636.22;5103693;28;20108;-79
2021/09/03 05:14:54;;;;;;;2.92;1.75;;;;;;;10.46;95.94;95642.13;5105079;28;20520;-79
2021/09/03 05:17:22;;;;;;;2.65;1.88;;;;;;;10.52;95.78;95639.50;5101425;28;20028;-78
2021/09/03 05:19:49;;;;;;;3.72;2.22;;;;;;;10.45;97.44;95628.34;5099318;28;20063;-79
2021/09/03 05:22:16;;;;;;;3.25;1.85;;;;;;;10.51;97.59;95624.91;5098115;28;20432;-79
2021/09/03 05:24:43;;;;;;;3.05;1.70;;;;;;;10.66;97.59;95636.81;5098780;28;20040;-78
2021/09/03 05:27:10;;;;;;;4.15;2.63;;;;;;;10.77;98.13;95632.72;5097418;28;20059;-79
2021/09/03 05:29:36;;;;;;;4.32;2.45;;;;;;;10.84;98.35;95634.28;5101969;28;20051;-78
2021/09/03 05:32:04;;;;;;;3.72;2.30;;;;;;;10.94;96.86;95643.44;5102359;28;20402;-78
2021/09/03 05:34:31;;;;;;;3.00;2.13;;;;;;;11.00;97.48;95642.56;5099783;28;20044;-79
2021/09/03 05:36:58;;;;;;;4.28;2.72;;;;;;;11.15;96.86;95644.88;5104256;28;20109;-80
2021/09/03 05:39:25;;;;;;;5.18;2.80;;;;;;;11.27;95.51;95657.00;5098661;28;20055;-79
2021/09/03 05:41:52;;;;;;;2.85;2.17;;;;;;;11.32;94.31;95645.09;5096344;28;20516;-80
2021/09/03 05:44:18;;;;;;;3.28;1.77;;;;;;;11.47;94.56;95653.41;5102784;28;20071;-79
2021/09/03 05:46:45;;;;;;;6.28;2.33;;;;;;;11.59;93.04;95656.88;5105875;28;20040;-80
2021/09/03 05:49:12;;;;;;;4.63;2.35;;;;;;;11.69;92.44;95650.38;5099188;28;20036;-80
2021/09/03 05:51:38;;;;;;;4.72;1.98;;;;;;;11.78;91.61;95646.44;5102201;28;20070;-80
2021/09/03 05:54:08;;;;;;;3.67;2.17;;;;;;;11.81;91.89;95646.81;5097297;28;20055;-80
2021/09/03 05:56:36;;;;;;;4.05;2.05;;;;;;;11.92;90.94;95650.53;5103750;28;20044;-79
2021/09/03 05:59:04;;;;;;;5.20;2.83;;;;;;;11.97;91.68;95655.09;5095978;28;20108;-80
2021/09/03 06:01:31;;;;;;;2.83;2.28;;;;;;;12.09;91.74;95655.16;5100628;28;20039;-78
2021/09/03 06:03:58;;;;;;;3.60;2.63;;;;;;;12.10;91.30;95646.28;5093319;28;20036;-77
2021/09/03 06:06:25;;;;;;;4.13;2.40;;;;;;;12.28;89.44;95654.13;5100786;28;20048;-79
2021/09/03 06:08:52;;;;;;;4.25;2.85;;;;;;;12.40;90.91;95652.31;5101544;28;20039;-79
2021/09/03 06:11:22;;;;;;;1.77;1.25;;;;;;;12.55;91.20;95648.50;5095796;28;20040;-79
2021/09/03 06:13:49;;;;;;;4.68;2.85;;;;;;;12.67;88.69;95638.88;5099904;28;20044;-79
2021/09/03 06:16:16;;;;;;;6.03;3.60;;;;;;;12.69;88.91;95644.69;5093363;28;20487;-79
2021/09/03 06:18:43;;;;;;;3.70;2.10;;;;;;;12.77;88.38;95651.41;5096123;28;20050;-80
2021/09/03 06:21:10;;;;;;;5.50;2.15;;;;;;;12.84;86.99;95651.31;5100266;28;20059;-79
2021/09/03 06:23:36;;;;;;;2.40;1.83;;;;;;;12.94;86.12;95651.56;5092541;28;20471;-79
2021/09/03 06:26:03;;;;;;;3.03;1.83;;;;;;;13.08;84.50;95641.69;5097975;28;20050;-79
2021/09/03 06:28:30;;;;;;;5.32;2.38;;;;;;;13.06;84.64;95628.84;5097101;28;20039;-79
2021/09/03 06:30:57;;;;;;;3.03;1.23;;;;;;;13.29;83.06;95646.38;5100773;28;20424;-79
2021/09/03 06:33:24;;;;;;;4.05;2.25;;;;;;;13.35;82.96;95637.63;5096659;28;20504;-79
2021/09/03 06:35:52;;;;;;;2.88;1.63;;;;;;;13.50;83.49;95639.75;5097028;28;20481;-79
2021/09/03 06:38:18;;;;;;;3.03;1.70;;;;;;;13.69;79.21;95639.66;5094402;28;20047;-79
2021/09/03 06:40:45;;;;;;;2.00;1.80;;;;;;;13.75;78.08;95642.13;5094991;28;20048;-79
2021/09/03 06:43:12;;;;;;;2.10;1.85;;;;;;;13.78;76.95;95640.88;5099872;28;20048;-78
2021/09/03 06:45:39;;;;;;;1.77;1.55;;;;;;;13.99;77.55;95651.75;5096006;28;20052;-79
2021/09/03 06:48:06;;;;;;;6.50;1.98;;;;;;;14.17;76.50;95649.00;5100273;28;20560;-79
2021/09/03 06:50:33;;;;;;;5.60;1.98;;;;;;;14.32;76.66;95657.13;5106690;28;20516;-79
2021/09/03 06:52:59;;;;;;;3.30;2.20;;;;;;;14.39;74.83;95656.19;5105332;28;20064;-77
2021/09/03 06:55:26;;;;;;;6.30;2.55;;;;;;;14.48;74.43;95657.41;5099141;28;20065;-79
2021/09/03 06:57:53;;;;;;;2.90;2.38;;;;;;;14.64;74.87;95654.06;5103848;28;20035;-79
2021/09/03 07:00:20;;;;;;;3.67;2.05;;;;;;;14.75;75.81;95648.97;5093952;28;20101;-79
2021/09/03 07:02:47;;;;;;;3.10;2.00;;;;;;;14.87;74.65;95647.06;5103102;28;20051;-80
2021/09/03 07:05:14;;;;;;;2.85;1.67;;;;;;;15.01;73.00;95656.22;5093686;28;20040;-80
2021/09/03 07:07:41;;;;;;;3.22;2.10;;;;;;;15.07;72.44;95651.84;5097509;28;20058;-80
2021/09/03 07:10:08;;;;;;;4.28;2.05;;;;;;;15.22;71.75;95659.97;5100546;28;20467;-79
2021/09/03 07:12:39;;;;;;;4.13;2.15;;;;;;;15.40;71.77;95656.28;5095903;28;20063;-78
2021/09/03 07:15:06;;;;;;;7.57;2.65;;;;;;;15.44;71.73;95646.88;5097230;28;20516;-80
2021/09/03 07:17:34;;;;;;;3.75;1.95;;;;;;;15.57;71.04;95655.47;5099051;28;20039;-79
2021/09/03 07:20:00;;;;;;;3.13;2.08;;;;;;;15.73;70.42;95659.09;5099558;28;20417;-79
2021/09/03 07:22:27;;;;;;;3.17;2.10;;;;;;;15.81;71.41;95656.88;5094206;28;20051;-80
2021/09/03 07:24:54;;;;;;;4.90;1.77;;;;;;;15.91;72.29;95642.28;5101655;28;20505;-79
2021/09/03 07:27:21;;;;;;;4.63;2.60;;;;;;;16.10;70.61;95659.31;5096897;28;20048;-79
2021/09/03 07:29:48;;;;;;;3.25;2.20;;;;;;;16.24;69.38;95655.28;5092512;28;20044;-79
2021/09/03 07:32:15;;;;;;;3.30;1.90;;;;;;;16.42;70.01;95650.72;5100946;28;20035;-80
2021/09/03 07:34:41;;;;;;;3.05;2.17;;;;;;;16.59;68.65;95646.16;5095255;28;20047;-79
2021/09/03 07:37:08;;;;;;;3.05;1.85;;;;;;;16.75;67.83;95654.22;5097682;28;20048;-80
2021/09/03 07:39:35;;;;;;;3.17;2.00;;;;;;;16.92;65.99;95647.00;5099289;28;20043;-79
2021/09/03 07:42:03;;;;;;;2.97;1.70;;;;;;;17.06;66.07;95646.59;5090583;28;20051;-79
2021/09/03 07:44:29;;;;;;;3.42;1.38;;;;;;;17.18;64.67;95642.75;5095286;28;20047;-79
2021/09/03 07:46:56;;;;;;;3.20;1.98;;;;;;;17.23;62.26;95644.59;5096074;28;20564;-79
2021/09/03 07:49:23;;;;;;;3.40;2.05;;;;;;;17.20;61.72;95642.50;5091243;28;20055;-80
2021/09/03 07:51:50;;;;;;;4.55;1.80;;;;;;;17.32;63.51;95653.66;5095652;28;20060;-80
2021/09/03 07:54:16;;;;;;;3.65;2.33;;;;;;;17.43;62.59;95658.97;5092308;28;20036;-79
2021/09/03 07:56:44;;;;;;;3.20;2.50;;;;;;;17.52;60.06;95652.16;5095369;27;20059;-79
2021/09/03 07:59:11;;;;;;;3.20;1.65;;;;;;;17.63;59.18;95645.13;5094756;28;20039;-79
2021/09/03 08:01:38;;;;;;;2.60;2.13;;;;;;;17.74;58.86;95644.13;5094098;27;20067;-80
2021/09/03 08:04:05;;;;;;;3.60;1.60;;;;;;;17.68;61.21;95630.16;5087590;28;20044;-79
2021/09/03 08:06:32;;;;;;;3.20;1.73;;;;;;;18.01;61.68;95637.97;5089750;28;20067;-78
2021/09/03 08:09:01;;;;;;;9.77;2.78;;;;;;;18.09;55.99;95635.59;5092400;28;20054;-78
2021/09/03 08:11:27;;;;;;;2.38;1.67;;;;;;;18.19;56.69;95639.34;5091394;28;20126;-78
2021/09/03 08:13:54;;;;;;;1.48;1.20;;;;;;;18.38;55.80;95632.53;5092740;28;20051;-77
2021/09/03 08:16:22;;;;;;;2.20;1.65;;;;;;;18.49;55.75;95628.88;5094446;27;20040;-77
2021/09/03 08:18:49;;;;;;;3.13;2.42;;;;;;;18.69;56.20;95627.28;5091515;28;20041;-78
2021/09/03 08:21:16;;;;;;;3.15;1.83;;;;;;;18.89;52.43;95622.06;5089910;28;20101;-78
2021/09/03 08:23:42;;;;;;;3.80;2.60;;;;;;;18.89;53.04;95611.53;5088619;28;20066;-78
2021/09/03 08:26:09;;;;;;;3.60;2.67;;;;;;;18.91;51.48;95613.91;5094272;28;20046;-77
2021/09/03 08:28:36;;;;;;;4.30;1.88;;;;;;;18.98;51.83;95608.34;5089132;28;20435;-78
2021/09/03 08:31:03;;;;;;;4.40;1.92;;;;;;;18.99;52.64;95609.94;5091059;28;20044;-78
2021/09/03 08:33:30;;;;;;;4.07;2.40;;;;;;;18.92;52.65;95612.81;5089075;28;20471;-78
2021/09/03 08:35:57;;;;;;;2.38;1.60;;;;;;;19.17;50.95;95605.97;5093909;28;20055;-77
2021/09/03 08:38:23;;;;;;;2.55;1.70;;;;;;;19.41;51.94;95600.88;5094969;28;20056;-78
2021/09/03 08:40:50;;;;;;;2.53;1.67;;;;;;;19.65;52.00;95596.59;5095091;28;20044;-78
2021/09/03 08:43:20;;;;;;;4.38;1.80;;;;;;;19.97;49.66;95602.56;5095597;28;20066;-77
2021/09/03 08:45:47;;;;;;;3.10;1.80;;;;;;;20.04;51.53;95592.50;5094053;28;20040;-78
2021/09/03 08:48:21;;;;;;;2.03;1.40;;;;;;;19.84;51.85;95590.75;5091019;28;20055;-77
2021/09/03 08:50:50;;;;;;;3.17;1.67;;;;;;;19.96;50.39;95575.34;5092475;28;20110;-78
2021/09/03 08:53:19;;;;;;;2.38;1.80;;;;;;;20.22;49.84;95575.22;5094391;28;20060;-78
2021/09/03 08:55:48;;;;;;;2.55;1.85;;;;;;;20.60;48.96;95567.59;5094715;28;20051;-78
2021/09/03 08:58:15;;;;;;;3.75;1.63;;;;;;;20.81;47.83;95569.03;5091832;28;20048;-78
2021/09/03 09:00:43;;;;;;;2.00;1.20;;;;;;;20.92;46.57;95568.94;5097782;28;20054;-77
2021/09/03 09:03:15;;;;;;;3.55;1.98;;;;;;;21.09;44.76;95568.53;5089521;27;20056;-78
2021/09/03 09:05:59;;;;;;;2.25;1.65;;;;;;;21.24;44.21;95575.53;5097288;28;20462;-77
2021/09/03 09:08:28;;;;;;;3.45;1.88;;;;;;;21.38;46.96;95571.16;5096219;27;20048;-77
2021/09/03 09:11:03;;;;;;;2.42;1.38;;;;;;;21.68;45.21;95558.63;5093534;28;20036;-77
2021/09/03 09:13:33;;;;;;;2.30;1.75;;;;;;;21.80;48.86;95561.66;5096577;28;20105;-78
2021/09/03 09:16:08;;;;;;;2.63;1.30;;;;;;;21.37;45.54;95558.97;5095436;28;20535;-78
2021/09/03 09:18:42;;;;;;;2.88;1.90;;;;;;;21.82;45.51;95570.13;5094379;28;20048;-79
2021/09/03 09:21:26;;;;;;;3.63;2.20;;;;;;;22.35;42.36;95560.47;5097419;28;20097;-80
2021/09/03 09:24:01;;;;;;;3.95;1.88;;;;;;;22.54;43.55;95563.88;5101520;28;20036;-77
2021/09/03 09:26:41;;;;;;;2.72;1.70;;;;;;;22.96;41.62;95564.81;5101523;28;20130;-80
2021/09/03 09:29:19;;;;;;;2.17;1.60;;;;;;;23.31;37.64;95569.81;5103839;28;20040;-79
2021/09/03 09:31:48;;;;;;;2.17;1.25;;;;;;;23.46;37.82;95564.22;5099691;28;20043;-79
2021/09/03 09:34:19;;;;;;;2.47;1.80;;;;;;;23.48;37.26;95564.72;5105009;28;20086;-80
2021/09/03 09:36:52;;;;;;;2.78;1.98;;;;;;;23.52;37.16;95543.66;5102846;28;20048;-80
2021/09/03 09:39:21;;;;;;;3.95;1.95;;;;;;;23.28;38.54;95560.56;5101911;28;20039;-80
2021/09/03 09:41:58;;;;;;;2.65;1.55;;;;;;;23.38;36.73;95555.06;5102647;28;20101;-78
2021/09/03 09:44:30;;;;;;;3.05;1.95;;;;;;;23.26;37.66;95552.09;5097814;28;20036;-78
2021/09/03 09:47:07;;;;;;;2.22;1.45;;;;;;;23.40;37.80;95536.94;5093187;28;20047;-78
2021/09/03 09:49:35;;;;;;;2.53;1.35;;;;;;;23.95;35.66;95545.97;5095067;28;20028;-78
2021/09/03 09:52:03;;;;;;;2.42;1.40;;;;;;;24.27;34.08;95557.53;5098849;28;20040;-79
2021/09/03 09:54:30;;;;;;;2.17;1.50;;;;;;;24.54;36.23;95554.84;5096914;28;20048;-78
2021/09/03 09:57:01;;;;;;;2.67;1.50;;;;;;;25.05;36.31;95546.66;5095928;28;20047;-77
2021/09/03 09:59:30;;;;;;;1.77;1.10;;;;;;;25.46;32.95;95558.97;5092542;28;20490;-79
2021/09/03 10:02:00;;;;;;;4.28;1.88;;;;;;;25.70;33.23;95542.56;5096493;28;20047;-79
2021/09/03 10:04:29;;;;;;;1.83;1.48;;;;;;;25.49;33.59;95543.13;5091334;28;20445;-80
2021/09/03 10:06:59;;;;;;;3.45;1.60;;;;;;;25.49;32.70;95531.69;5095775;28;20421;-79
2021/09/03 10:09:31;;;;;;;2.65;1.67;;;;;;;25.53;31.76;95537.97;5093854;27;20071;-79
2021/09/03 10:11:59;;;;;;;2.80;1.58;;;;;;;25.27;34.04;95536.00;5091088;28;20062;-80
2021/09/03 10:14:29;;;;;;;3.33;1.15;;;;;;;25.58;30.02;95540.50;5094728;28;20068;-79
2021/09/03 10:16:57;;;;;;;2.20;1.00;;;;;;;25.38;30.37;95531.94;5094521;28;20105;-79
2021/09/03 10:19:33;;;;;;;2.17;1.38;;;;;;;25.73;29.54;95516.06;5094306;28;20047;-78
2021/09/03 10:22:11;;;;;;;2.72;1.75;;;;;;;25.58;31.90;95523.72;5092006;28;20032;-79
2021/09/03 10:24:42;;;;;;;2.25;1.50;;;;;;;26.17;31.17;95521.47;5095291;27;20059;-79
2021/09/03 10:27:10;;;;;;;1.50;0.95;;;;;;;26.50;28.35;95512.97;5097155;28;20055;-79
2021/09/03 10:29:42;;;;;;;1.90;1.15;;;;;;;26.86;26.49;95519.88;5092778;28;20035;-80
2021/09/03 10:32:11;;;;;;;1.90;1.35;;;;;;;26.13;29.07;95501.84;5090523;28;20040;-80
2021/09/03 10:34:42;;;;;;;1.88;0.93;;;;;;;26.67;29.47;95521.00;5086831;27;21579;-79
2021/09/03 10:37:14;;;;;;;1.73;1.20;;;;;;;27.25;26.88;95518.78;5092682;28;20043;-79
2021/09/03 10:39:49;;;;;;;1.88;1.30;;;;;;;26.34;29.04;95518.00;5092975;27;20032;-79
2021/09/03 10:42:55;;;;;;;1.85;1.30;;;;;;;26.80;27.03;95524.59;5091921;28;20044;-77
2021/09/03 10:45:25;;;;;;;1.88;1.20;;;;;;;26.01;31.41;95515.81;5089284;28;20563;-78
2021/09/03 10:48:07;;;;;;;2.40;1.20;;;;;;;26.83;29.06;95518.63;5093559;28;20036;-77
2021/09/03 10:50:45;;;;;;;4.07;1.60;;;;;;;27.43;26.75;95513.41;5094470;27;20058;-77
2021/09/03 10:53:16;;;;;;;1.92;1.23;;;;;;;27.62;28.21;95521.81;5093798;28;20035;-78
2021/09/03 10:55:46;;;;;;;2.35;1.58;;;;;;;28.34;27.53;95513.78;5093271;28;20051;-78
2021/09/03 10:58:39;;;;;;;2.45;1.50;;;;;;;28.93;25.37;95514.66;5094324;28;20036;-79
2021/09/03 11:01:12;;;;;;;3.47;1.92;;;;;;;28.92;25.94;95508.53;5090578;28;20048;-79
2021/09/03 11:03:44;;;;;;;3.28;1.50;;;;;;;29.17;25.98;95500.53;5099786;28;20047;-78
2021/09/03 11:06:23;;;;;;;2.22;1.98;;;;;;;29.43;25.46;95500.22;5096038;28;20055;-78
2021/09/03 11:08:57;;;;;;;1.90;1.25;;;;;;;29.50;25.55;95495.09;5095608;28;20036;-78
2021/09/03 11:11:32;;;;;;;2.05;1.30;;;;;;;29.84;24.99;95506.50;5095173;28;20036;-77
2021/09/03 11:14:02;;;;;;;2.13;1.45;;;;;;;29.82;24.17;95503.38;5095052;28;20055;-78
2021/09/03 11:16:43;;;;;;;2.17;1.60;;;;;;;29.70;26.95;95498.75;5107915;28;20043;-77
2021/09/03 11:19:24;;;;;;;1.67;1.17;;;;;;;28.68;27.93;95500.44;5109379;28;20066;-78
2021/09/03 11:22:08;;;;;;;3.15;1.55;;;;;;;28.59;27.97;95497.81;5108254;28;20505;-78
2021/09/03 11:24:38;;;;;;;2.90;1.40;;;;;;;28.02;27.54;95491.97;5102500;28;20047;-78
2021/09/03 11:27:07;;;;;;;2.83;1.50;;;;;;;29.03;26.13;95490.13;5102407;28;20066;-78
2021/09/03 11:29:46;;;;;;;2.25;1.55;;;;;;;29.48;25.23;95491.19;5097768;28;20043;-79
2021/09/03 11:32:16;;;;;;;2.08;1.33;;;;;;;29.69;25.09;95489.16;5097928;28;20039;-78
2021/09/03 11:34:54;;;;;;;2.65;1.77;;;;;;;29.44;24.72;95491.06;5102022;28;20036;-79
2021/09/03 11:37:22;;;;;;;2.53;1.58;;;;;;;29.72;24.93;95487.69;5094213;28;20052;-78
2021/09/03 11:39:54;;;;;;;3.55;1.90;;;;;;;29.32;24.79;95497.22;5101885;28;20040;-79